Time;durP1;ratioP1;P1;durP2;ratioP2;P2;SDS_P1;SDS_P2;PMS_P1;PMS_P2;Temp;Humidity;BMP_temperature;BMP_pressure;BME280_temperature;BME280_humidity;BME280_pressure;Samples;Min_cycle;Max_cycle;Signal;HPM_P1;HPM_P2
2023/05/07 18:19:44;;;;;;;21.75;16.95;;;563.60;2201.60;;;;;;5172262;27;20343;-83
2023/05/07 18:30:24;;;;;;;27.70;21.85;;;538.50;2201.60;;;;;;4596205;27;15128517;-86
2023/05/07 18:32:55;;;;;;;29.85;26.85;;;538.50;2227.20;;;;;;5089714;28;20036;-85
2023/05/07 18:35:59;;;;;;;25.58;21.75;;;538.30;2252.80;;;;;;5091759;28;20021;-87
2023/05/07 18:38:46;;;;;;;25.73;18.15;;;538.10;2278.40;;;;;;5033671;28;20069;-85
2023/05/07 18:41:17;;;;;;;20.80;16.65;;;538.20;2304.00;;;;;;4975114;28;20113;-85
2023/05/07 18:44:11;;;;;;;24.35;20.58;;;538.10;2278.40;;;;;;4977251;28;20046;-84
2023/05/07 18:57:37;;;;;;;19.23;14.98;;;537.80;2304.00;;;;;;4915098;29;20523;-83
2023/05/07 19:04:43;;;;;;;17.70;10.13;;;512.90;2278.40;;;;;;4876203;29;20021;-85
2023/05/07 19:08:15;;;;;;;13.82;9.13;;;512.90;2304.00;;;;;;4842339;29;20039;-85
2023/05/07 19:20:47;;;;;;;15.13;12.40;;;;;;;;;;4849267;29;20041;-85
2023/05/07 19:23:56;;;;;;;18.08;12.68;;;512.40;2329.60;;;;;;4850874;29;20049;-85
2023/05/07 19:27:27;;;;;;;15.98;11.65;;;512.60;2329.60;;;;;;4862909;29;20043;-86
2023/05/07 19:30:20;;;;;;;24.15;14.25;;;512.50;2329.60;;;;;;4846795;29;20062;-85
2023/05/07 19:33:06;;;;;;;21.73;15.20;;;512.20;2355.20;;;;;;4806057;29;20040;-85
2023/05/07 19:36:28;;;;;;;26.50;19.30;;;512.00;2380.80;;;;;;4829318;29;20049;-87
2023/05/07 19:39:03;;;;;;;29.30;17.40;;;512.00;2380.80;;;;;;4808297;29;20050;-86
2023/05/07 19:42:46;;;;;;;23.35;17.98;;;487.30;2380.80;;;;;;4810888;30;20055;-85
2023/05/07 19:46:05;;;;;;;29.77;17.50;;;512.00;2380.80;;;;;;4780119;30;20040;-85
2023/05/07 19:49:12;;;;;;;26.77;17.10;;;487.30;2380.80;;;;;;4789602;29;20032;-86
2023/05/07 19:52:36;;;;;;;24.30;18.90;;;487.10;2380.80;;;;;;4785337;30;20101;-85
2023/05/07 19:56:18;;;;;;;35.30;19.70;;;487.10;2380.80;;;;;;4841025;29;20015;-84
2023/05/07 20:02:11;;;;;;;38.45;19.55;;;486.90;2380.80;;;;;;4797185;29;20380;-85
2023/05/07 20:05:30;;;;;;;33.13;20.85;;;487.00;2380.80;;;;;;4793724;30;20035;-85
2023/05/07 20:12:08;;;;;;;25.98;17.63;;;486.90;2380.80;;;;;;4794769;29;20542;-85
2023/05/07 20:15:34;;;;;;;23.25;15.90;;;486.80;2380.80;;;;;;4787553;29;20035;-86
2023/05/07 20:19:00;;;;;;;27.27;16.80;;;486.70;2380.80;;;;;;4791656;29;20024;-86
2023/05/07 20:22:25;;;;;;;30.00;18.13;;;486.70;2380.80;;;;;;4814402;29;20027;-85
2023/05/07 20:35:21;;;;;;;16.23;12.32;;;486.40;2380.80;;;;;;5038778;28;20029;-85
2023/05/07 20:38:50;;;;;;;23.40;14.02;;;461.70;2380.80;;;;;;4979775;29;20039;-83
2023/05/07 20:41:59;;;;;;;27.83;18.92;;;461.60;2380.80;;;;;;4959511;29;20079;-82
2023/05/07 20:45:34;;;;;;;22.83;16.42;;;461.60;2380.80;;;;;;4918066;29;20017;-82
2023/05/07 20:48:38;;;;;;;24.00;15.38;;;461.70;2380.80;;;;;;4884081;29;20032;-82
2023/05/07 20:51:39;;;;;;;21.42;16.30;;;461.60;2380.80;;;;;;4831248;29;20014;-81
2023/05/07 20:57:24;;;;;;;23.10;17.52;;;461.40;2380.80;;;;;;4815659;29;20312;-82
2023/05/07 21:01:03;;;;;;;24.40;16.77;;;461.40;2380.80;;;;;;4799128;30;20094;-84
2023/05/07 21:04:31;;;;;;;21.65;16.05;;;461.20;2380.80;;;;;;4808243;29;20045;-83
2023/05/07 21:07:41;;;;;;;25.08;12.07;;;461.10;2380.80;;;;;;4722814;30;20035;-84
2023/05/07 21:10:48;;;;;;;19.10;12.48;;;461.10;2380.80;;;;;;4748425;30;20110;-84
2023/05/07 21:13:46;;;;;;;26.58;18.20;;;461.10;2380.80;;;;;;4756548;30;20045;-84
2023/05/07 21:16:53;;;;;;;18.85;12.43;;;461.00;2380.80;;;;;;4792650;29;20046;-83
2023/05/07 21:19:48;;;;;;;19.98;13.70;;;461.10;2380.80;;;;;;4811269;29;20047;-83
2023/05/07 21:22:51;;;;;;;22.02;16.70;;;461.20;2380.80;;;;;;4809054;29;20041;-82
2023/05/07 21:25:30;;;;;;;18.83;13.63;;;461.20;2380.80;;;;;;4787959;29;20042;-82
2023/05/07 21:28:42;;;;;;;16.73;13.80;;;461.00;2380.80;;;;;;4828117;29;20102;-83
2023/05/07 21:31:20;;;;;;;15.40;10.97;;;460.90;2380.80;;;;;;4846453;29;20055;-84
2023/05/07 21:34:27;;;;;;;20.15;14.25;;;436.10;2355.20;;;;;;4816133;29;20033;-83
2023/05/07 21:37:08;;;;;;;27.50;20.52;;;436.10;2355.20;;;;;;4868655;29;20037;-81
2023/05/07 21:39:34;;;;;;;15.33;12.07;;;436.10;2355.20;;;;;;4926490;29;20032;-81
2023/05/07 21:42:15;;;;;;;17.63;12.70;;;436.10;2355.20;;;;;;4935933;29;20032;-81
2023/05/07 21:44:42;;;;;;;16.48;10.77;;;460.90;2380.80;;;;;;4960692;28;20035;-83
2023/05/07 21:47:08;;;;;;;17.23;12.10;;;461.40;2380.80;;;;;;4994007;28;20466;-82
2023/05/07 21:49:34;;;;;;;19.88;14.25;;;460.80;2380.80;;;;;;4992496;28;20042;-82
2023/05/07 21:52:27;;;;;;;26.70;15.70;;;460.90;2380.80;;;;;;5000717;28;20053;-86
2023/05/07 21:54:56;;;;;;;19.00;14.02;;;460.90;2380.80;;;;;;5000211;28;20030;-85
2023/05/07 21:57:22;;;;;;;17.58;12.05;;;460.90;2380.80;;;;;;5000747;28;20018;-83
2023/05/07 21:59:49;;;;;;;16.95;10.90;;;435.80;2355.20;;;;;;4978164;28;20039;-83
2023/05/07 22:02:15;;;;;;;18.05;9.85;;;436.00;2355.20;;;;;;4967386;28;20019;-82
2023/05/07 22:04:42;;;;;;;12.02;9.32;;;436.10;2355.20;;;;;;4995392;28;20035;-83
2023/05/07 22:07:09;;;;;;;12.73;9.02;;;435.90;2355.20;;;;;;4994986;28;20007;-82
2023/05/07 22:09:34;;;;;;;11.50;9.13;;;435.80;2355.20;;;;;;4994247;28;20601;-82
2023/05/07 22:12:01;;;;;;;13.35;9.68;;;435.80;2355.20;;;;;;5008956;28;20070;-83
2023/05/07 22:14:27;;;;;;;14.60;10.23;;;435.20;2355.20;;;;;;4997013;28;20038;-82
2023/05/07 22:16:53;;;;;;;12.30;9.48;;;435.60;2355.20;;;;;;4996622;28;20030;-83
2023/05/07 22:19:19;;;;;;;11.57;9.13;;;435.70;2355.20;;;;;;4995802;28;20043;-83
2023/05/07 22:21:45;;;;;;;28.55;16.00;;;435.70;2355.20;;;;;;4979995;28;20029;-83
2023/05/07 22:24:12;;;;;;;17.35;12.18;;;435.50;2355.20;;;;;;4981096;28;20019;-82
2023/05/07 22:26:38;;;;;;;14.63;9.75;;;436.00;2355.20;;;;;;4975560;28;20054;-83
2023/05/07 22:29:05;;;;;;;14.00;8.82;;;435.60;2355.20;;;;;;4978233;28;20086;-83
2023/05/07 22:31:33;;;;;;;12.77;8.32;;;435.60;2355.20;;;;;;5035952;28;20022;-82
2023/05/07 22:34:01;;;;;;;14.40;9.25;;;460.80;2380.80;;;;;;5041103;28;20018;-85
2023/05/07 22:36:27;;;;;;;24.10;12.00;;;435.40;2355.20;;;;;;5035756;28;20040;-84
2023/05/07 22:38:55;;;;;;;26.15;14.43;;;435.50;2355.20;;;;;;5038100;28;20021;-85
2023/05/07 22:41:21;;;;;;;27.90;15.23;;;410.50;2355.20;;;;;;4997192;28;20035;-84
2023/05/07 22:43:47;;;;;;;20.25;13.30;;;435.50;2355.20;;;;;;5014443;28;20051;-84
2023/05/07 22:46:13;;;;;;;16.25;11.25;;;435.50;2355.20;;;;;;4999427;28;20031;-85
2023/05/07 22:48:41;;;;;;;20.38;11.35;;;435.50;2355.20;;;;;;4978467;28;20031;-85
2023/05/07 22:51:19;;;;;;;18.75;12.23;;;435.30;2355.20;;;;;;4962413;28;20107;-86
2023/05/07 22:53:47;;;;;;;20.77;12.10;;;435.30;2355.20;;;;;;4928610;28;20043;-85
2023/05/07 22:56:13;;;;;;;16.67;10.43;;;410.30;2355.20;;;;;;4959072;28;20020;-83
2023/05/07 22:58:39;;;;;;;11.82;8.82;;;410.20;2355.20;;;;;;4961783;28;20018;-82
2023/05/07 23:01:12;;;;;;;14.27;9.30;;;410.30;2355.20;;;;;;4977225;28;20023;-84
2023/05/07 23:03:38;;;;;;;14.50;9.40;;;410.30;2355.20;;;;;;4977631;28;20023;-85
2023/05/07 23:06:04;;;;;;;18.17;10.57;;;410.40;2355.20;;;;;;4981388;28;20054;-84
2023/05/07 23:08:32;;;;;;;18.75;10.25;;;410.50;2355.20;;;;;;4996098;28;20023;-83
2023/05/07 23:10:58;;;;;;;14.52;9.80;;;410.50;2355.20;;;;;;4996193;28;20078;-84
2023/05/07 23:13:24;;;;;;;15.73;10.13;;;460.80;2380.80;;;;;;5011633;28;20051;-84
2023/05/07 23:15:51;;;;;;;15.63;9.90;;;410.30;2355.20;;;;;;4982452;28;20022;-83
2023/05/07 23:18:49;;;;;;;14.88;9.00;;;410.50;2355.20;;;;;;5000425;28;20022;-82
2023/05/07 23:21:19;;;;;;;13.52;9.48;;;410.40;2355.20;;;;;;4955180;29;20047;-85
2023/05/07 23:23:46;;;;;;;15.70;10.25;;;410.50;2355.20;;;;;;4945315;29;20059;-84
2023/05/07 23:26:14;;;;;;;13.55;9.45;;;410.50;2355.20;;;;;;4968567;28;20034;-85
2023/05/07 23:28:41;;;;;;;12.23;9.85;;;410.30;2355.20;;;;;;4984294;28;20038;-84
2023/05/07 23:31:08;;;;;;;15.73;9.85;;;410.20;2355.20;;;;;;4984551;28;20034;-84
2023/05/07 23:33:34;;;;;;;12.05;8.15;;;410.00;2355.20;;;;;;4984501;28;20030;-83
2023/05/07 23:36:01;;;;;;;13.20;9.50;;;410.00;2355.20;;;;;;4996113;28;20149;-84
2023/05/07 23:38:28;;;;;;;16.92;10.05;;;410.20;2355.20;;;;;;5036198;28;20018;-84
2023/05/07 23:40:54;;;;;;;17.80;10.88;;;410.30;2355.20;;;;;;5002974;28;20117;-83
2023/05/07 23:43:21;;;;;;;14.75;8.98;;;410.40;2355.20;;;;;;5019436;28;20030;-83
2023/05/07 23:45:47;;;;;;;16.35;10.15;;;384.90;2329.60;;;;;;5036931;28;20015;-84
2023/05/07 23:48:13;;;;;;;13.88;9.23;;;410.40;2355.20;;;;;;5039770;28;20045;-83
2023/05/07 23:50:41;;;;;;;16.08;10.48;;;410.50;2355.20;;;;;;5040109;28;20030;-84
2023/05/07 23:53:07;;;;;;;15.68;9.60;;;410.50;2355.20;;;;;;5007872;28;20024;-84
2023/05/07 23:55:35;;;;;;;12.13;9.73;;;410.40;2355.20;;;;;;5040352;28;20097;-84
2023/05/07 23:58:02;;;;;;;13.20;9.35;;;410.00;2355.20;;;;;;5041629;28;20022;-82
